MWI20 FWKI-FWCL
Flight info
| Callsign | MWI20 |
|---|---|
| Flight time | 0h 27m |
| Altitude | 19000 |
| Route | DVL DCT TETEM DCT UVARU |
| Aircraft | B38M/M-SDE1FGHILORVWXY/HB1 |
Departure
| Time | 2026-04-25 17:46 |
|---|---|
| Airport | Kamuzu International Airport (FWKI) |
Arrival
| Time | 2026-04-25 18:14 |
|---|---|
| Airport | Chileka International Airport (FWCL) |
| Time | Latitude | Longitude | Altitude | Speed | Heading |
|---|---|---|---|---|---|
| 2026-04-25 17:25 | -13.78182 | 33.77818 | 4035 ft | 0 kts | 128° |
| 2026-04-25 17:41 | -13.78184 | 33.77821 | 4035 ft | 1 kts | 128° |
| 2026-04-25 17:41 | -13.78189 | 33.77826 | 4035 ft | 1 kts | 128° |
| 2026-04-25 17:41 | -13.78216 | 33.77851 | 4036 ft | 8 kts | 158° |
| 2026-04-25 17:42 | -13.78270 | 33.77833 | 4036 ft | 9 kts | 223° |
| 2026-04-25 17:42 | -13.78333 | 33.77770 | 4035 ft | 16 kts | 219° |
| 2026-04-25 17:42 | -13.78351 | 33.77676 | 4032 ft | 17 kts | 308° |
| 2026-04-25 17:42 | -13.78273 | 33.77575 | 4030 ft | 19 kts | 309° |
| 2026-04-25 17:43 | -13.78187 | 33.77469 | 4030 ft | 20 kts | 309° |
| 2026-04-25 17:43 | -13.78095 | 33.77354 | 4028 ft | 22 kts | 309° |
| 2026-04-25 17:43 | -13.77997 | 33.77234 | 4030 ft | 22 kts | 309° |
| 2026-04-25 17:43 | -13.77896 | 33.77115 | 4030 ft | 22 kts | 310° |
| 2026-04-25 17:44 | -13.77817 | 33.76994 | 4033 ft | 19 kts | 279° |
| 2026-04-25 17:44 | -13.77882 | 33.76894 | 4035 ft | 18 kts | 200° |
| 2026-04-25 17:44 | -13.77991 | 33.76942 | 4032 ft | 14 kts | 128° |
| 2026-04-25 17:44 | -13.77994 | 33.76946 | 4032 ft | 0 kts | 128° |
| 2026-04-25 17:45 | -13.78011 | 33.76969 | 4032 ft | 21 kts | 128° |
| 2026-04-25 17:45 | -13.78061 | 33.77029 | 4032 ft | 46 kts | 130° |
| 2026-04-25 17:45 | -13.78812 | 33.77945 | 4032 ft | 149 kts | 130° |
| 2026-04-25 17:45 | -13.79562 | 33.78877 | 4130 ft | 184 kts | 128° |
| 2026-04-25 17:46 | -13.80419 | 33.79989 | 4438 ft | 206 kts | 130° |
| 2026-04-25 17:46 | -13.81510 | 33.80846 | 5396 ft | 193 kts | 150° |
| 2026-04-25 17:46 | -13.82709 | 33.81505 | 6021 ft | 198 kts | 150° |
| 2026-04-25 17:46 | -13.84011 | 33.82216 | 6150 ft | 230 kts | 151° |
| 2026-04-25 17:47 | -13.85523 | 33.83027 | 6327 ft | 261 kts | 151° |
| 2026-04-25 17:47 | -13.87108 | 33.83967 | 7012 ft | 266 kts | 147° |
| 2026-04-25 17:47 | -13.88681 | 33.85020 | 7744 ft | 274 kts | 147° |
| 2026-04-25 17:47 | -13.90320 | 33.86083 | 8492 ft | 279 kts | 148° |
| 2026-04-25 17:48 | -13.93704 | 33.88168 | 9977 ft | 288 kts | 149° |
| 2026-04-25 17:48 | -13.95429 | 33.89205 | 10401 ft | 294 kts | 150° |
| 2026-04-25 17:48 | -13.97245 | 33.90288 | 10845 ft | 310 kts | 150° |
| 2026-04-25 17:49 | -13.99157 | 33.91423 | 11351 ft | 323 kts | 150° |
| 2026-04-25 17:49 | -14.01121 | 33.92585 | 12123 ft | 326 kts | 150° |
| 2026-04-25 17:49 | -14.03106 | 33.93758 | 12897 ft | 331 kts | 150° |
| 2026-04-25 17:49 | -14.05117 | 33.94946 | 13698 ft | 335 kts | 150° |
| 2026-04-25 17:50 | -14.07155 | 33.96152 | 14437 ft | 339 kts | 149° |
| 2026-04-25 17:50 | -14.09214 | 33.97369 | 15172 ft | 342 kts | 149° |
| 2026-04-25 17:50 | -14.11263 | 33.98581 | 15916 ft | 345 kts | 149° |
| 2026-04-25 17:50 | -14.13356 | 33.99818 | 16637 ft | 348 kts | 149° |
| 2026-04-25 17:51 | -14.15465 | 34.01066 | 17354 ft | 351 kts | 149° |
| 2026-04-25 17:51 | -14.17605 | 34.02332 | 18039 ft | 354 kts | 148° |
| 2026-04-25 17:51 | -14.19751 | 34.03603 | 18677 ft | 357 kts | 148° |
| 2026-04-25 17:51 | -14.21928 | 34.04891 | 19034 ft | 362 kts | 148° |
| 2026-04-25 17:52 | -14.24109 | 34.06182 | 19154 ft | 360 kts | 148° |
| 2026-04-25 17:52 | -14.24813 | 34.06599 | 19168 ft | 360 kts | 148° |
| 2026-04-25 17:52 | -14.28431 | 34.08741 | 19184 ft | 361 kts | 148° |
| 2026-04-25 17:52 | -14.30617 | 34.10036 | 19185 ft | 361 kts | 148° |
| 2026-04-25 17:53 | -14.32781 | 34.11318 | 19185 ft | 361 kts | 148° |
| 2026-04-25 17:53 | -14.34981 | 34.12623 | 19192 ft | 361 kts | 148° |
| 2026-04-25 17:53 | -14.37166 | 34.13918 | 19197 ft | 362 kts | 148° |
| 2026-04-25 17:53 | -14.39343 | 34.15209 | 19186 ft | 361 kts | 148° |
| 2026-04-25 17:54 | -14.41507 | 34.16493 | 19185 ft | 361 kts | 148° |
| 2026-04-25 17:54 | -14.43694 | 34.17790 | 19194 ft | 361 kts | 148° |
| 2026-04-25 17:54 | -14.45882 | 34.19088 | 19182 ft | 361 kts | 148° |
| 2026-04-25 17:54 | -14.48063 | 34.20382 | 19201 ft | 362 kts | 148° |
| 2026-04-25 17:55 | -14.50221 | 34.21664 | 19183 ft | 361 kts | 148° |
| 2026-04-25 17:55 | -14.52400 | 34.22958 | 19194 ft | 360 kts | 148° |
| 2026-04-25 17:55 | -14.54583 | 34.24254 | 19192 ft | 362 kts | 148° |
| 2026-04-25 17:55 | -14.56750 | 34.25541 | 19201 ft | 362 kts | 148° |
| 2026-04-25 17:56 | -14.58937 | 34.26841 | 19186 ft | 362 kts | 148° |
| 2026-04-25 17:56 | -14.61132 | 34.28145 | 19195 ft | 362 kts | 148° |
| 2026-04-25 17:56 | -14.63317 | 34.29445 | 19186 ft | 362 kts | 148° |
| 2026-04-25 17:56 | -14.65507 | 34.30746 | 19198 ft | 362 kts | 148° |
| 2026-04-25 17:57 | -14.67668 | 34.32032 | 19182 ft | 362 kts | 148° |
| 2026-04-25 17:57 | -14.72081 | 34.34587 | 19181 ft | 363 kts | 155° |
| 2026-04-25 17:57 | -14.72838 | 34.34913 | 19193 ft | 363 kts | 157° |
| 2026-04-25 17:58 | -14.76749 | 34.36603 | 19187 ft | 363 kts | 155° |
| 2026-04-25 17:58 | -14.79029 | 34.37617 | 19176 ft | 356 kts | 155° |
| 2026-04-25 17:58 | -14.81279 | 34.38627 | 19035 ft | 347 kts | 155° |
| 2026-04-25 17:58 | -14.83488 | 34.39623 | 18730 ft | 344 kts | 154° |
| 2026-04-25 17:59 | -14.85684 | 34.40617 | 18394 ft | 342 kts | 154° |
| 2026-04-25 17:59 | -14.87864 | 34.41603 | 18016 ft | 341 kts | 155° |
| 2026-04-25 17:59 | -14.90028 | 34.42584 | 17654 ft | 339 kts | 155° |
| 2026-04-25 17:59 | -14.92184 | 34.43560 | 17304 ft | 337 kts | 155° |
| 2026-04-25 18:00 | -14.94325 | 34.44530 | 16960 ft | 335 kts | 155° |
| 2026-04-25 18:00 | -14.96434 | 34.45486 | 16624 ft | 333 kts | 154° |
| 2026-04-25 18:00 | -14.97838 | 34.46123 | 16392 ft | 331 kts | 155° |
| 2026-04-25 18:00 | -15.00654 | 34.47399 | 15945 ft | 329 kts | 155° |
| 2026-04-25 18:01 | -15.02748 | 34.48349 | 15593 ft | 328 kts | 155° |
| 2026-04-25 18:01 | -15.04836 | 34.49296 | 15248 ft | 327 kts | 155° |
| 2026-04-25 18:01 | -15.06916 | 34.50240 | 14914 ft | 325 kts | 155° |
| 2026-04-25 18:01 | -15.08963 | 34.51169 | 14576 ft | 325 kts | 155° |
| 2026-04-25 18:02 | -15.11033 | 34.52108 | 14247 ft | 323 kts | 155° |
| 2026-04-25 18:02 | -15.13094 | 34.53043 | 13893 ft | 323 kts | 155° |
| 2026-04-25 18:02 | -15.15156 | 34.53981 | 13500 ft | 323 kts | 155° |
| 2026-04-25 18:02 | -15.17215 | 34.54916 | 13143 ft | 321 kts | 156° |
| 2026-04-25 18:03 | -15.19260 | 34.55844 | 12809 ft | 319 kts | 156° |
| 2026-04-25 18:03 | -15.21267 | 34.56756 | 12478 ft | 317 kts | 156° |
| 2026-04-25 18:03 | -15.23285 | 34.57673 | 12132 ft | 315 kts | 156° |
| 2026-04-25 18:03 | -15.24611 | 34.58275 | 11914 ft | 314 kts | 156° |
| 2026-04-25 18:04 | -15.27259 | 34.59480 | 11477 ft | 312 kts | 157° |
| 2026-04-25 18:04 | -15.28602 | 34.60090 | 11254 ft | 310 kts | 157° |
| 2026-04-25 18:04 | -15.31215 | 34.61279 | 10829 ft | 308 kts | 157° |
| 2026-04-25 18:04 | -15.32511 | 34.61869 | 10607 ft | 307 kts | 157° |
| 2026-04-25 18:05 | -15.34461 | 34.62756 | 10289 ft | 305 kts | 158° |
| 2026-04-25 18:05 | -15.36391 | 34.63634 | 10047 ft | 300 kts | 158° |
| 2026-04-25 18:05 | -15.38301 | 34.64504 | 9702 ft | 300 kts | 158° |
| 2026-04-25 18:05 | -15.40210 | 34.65374 | 9358 ft | 298 kts | 157° |
| 2026-04-25 18:06 | -15.42109 | 34.66239 | 9038 ft | 296 kts | 157° |
| 2026-04-25 18:06 | -15.44602 | 34.67374 | 8618 ft | 294 kts | 156° |
| 2026-04-25 18:06 | -15.45842 | 34.67939 | 8407 ft | 293 kts | 156° |
| 2026-04-25 18:06 | -15.47704 | 34.68788 | 8078 ft | 291 kts | 156° |
| 2026-04-25 18:07 | -15.49574 | 34.69640 | 7692 ft | 292 kts | 156° |
| 2026-04-25 18:07 | -15.51419 | 34.70481 | 7346 ft | 292 kts | 155° |
| 2026-04-25 18:07 | -15.53277 | 34.71327 | 7010 ft | 292 kts | 155° |
| 2026-04-25 18:07 | -15.55131 | 34.72173 | 6700 ft | 290 kts | 155° |
| 2026-04-25 18:08 | -15.56960 | 34.73006 | 6506 ft | 280 kts | 155° |
| 2026-04-25 18:08 | -15.58707 | 34.73806 | 6354 ft | 268 kts | 155° |
| 2026-04-25 18:08 | -15.60378 | 34.74567 | 6217 ft | 256 kts | 155° |
| 2026-04-25 18:08 | -15.61944 | 34.75280 | 6138 ft | 241 kts | 155° |
| 2026-04-25 18:09 | -15.63435 | 34.75961 | 6013 ft | 228 kts | 155° |
| 2026-04-25 18:09 | -15.64780 | 34.76729 | 5842 ft | 212 kts | 137° |
| 2026-04-25 18:09 | -15.65525 | 34.77953 | 5661 ft | 195 kts | 108° |
| 2026-04-25 18:09 | -15.65711 | 34.78857 | 5560 ft | 193 kts | 101° |
| 2026-04-25 18:10 | -15.65983 | 34.80692 | 5292 ft | 188 kts | 100° |
| 2026-04-25 18:10 | -15.66158 | 34.82017 | 5009 ft | 182 kts | 99° |
| 2026-04-25 18:10 | -15.66317 | 34.83282 | 4839 ft | 178 kts | 99° |
| 2026-04-25 18:10 | -15.66473 | 34.84567 | 4726 ft | 179 kts | 99° |
| 2026-04-25 18:11 | -15.66624 | 34.85849 | 4550 ft | 178 kts | 99° |
| 2026-04-25 18:11 | -15.66771 | 34.87092 | 4307 ft | 165 kts | 100° |
| 2026-04-25 18:11 | -15.66897 | 34.88232 | 4071 ft | 155 kts | 101° |
| 2026-04-25 18:11 | -15.66992 | 34.89340 | 3696 ft | 153 kts | 97° |
| 2026-04-25 18:12 | -15.67060 | 34.90411 | 3386 ft | 148 kts | 97° |
| 2026-04-25 18:12 | -15.67141 | 34.91463 | 3246 ft | 146 kts | 101° |
| 2026-04-25 18:12 | -15.67284 | 34.92506 | 3092 ft | 145 kts | 105° |
| 2026-04-25 18:12 | -15.67465 | 34.93561 | 3002 ft | 149 kts | 99° |
| 2026-04-25 18:13 | -15.67575 | 34.94632 | 2755 ft | 149 kts | 101° |
| 2026-04-25 18:13 | -15.67712 | 34.95676 | 2535 ft | 144 kts | 96° |
| 2026-04-25 18:13 | -15.67813 | 34.96584 | 2520 ft | 94 kts | 97° |
| 2026-04-25 18:14 | -15.67965 | 34.97142 | 2541 ft | 18 kts | 169° |
| 2026-04-25 18:14 | -15.68041 | 34.97163 | 2540 ft | 10 kts | 134° |
| 2026-04-25 18:14 | -15.68050 | 34.97187 | 2543 ft | 0 kts | 103° |
| 2026-04-25 18:14 | -15.68050 | 34.97188 | 2543 ft | 1 kts | 103° |
| 2026-04-25 18:15 | -15.68051 | 34.97193 | 2546 ft | 0 kts | 101° |
| 2026-04-25 18:15 | -15.68052 | 34.97207 | 2537 ft | 4 kts | 94° |
| 2026-04-25 18:15 | -15.68055 | 34.97217 | 2539 ft | 0 kts | 123° |
| 2026-04-25 18:15 | -15.68069 | 34.97227 | 2540 ft | 4 kts | 159° |
| 2026-04-25 18:16 | -15.68078 | 34.97228 | 2540 ft | 0 kts | 175° |